sensor_id;sensor_type;location;lat;lon;timestamp;pressure;altitude;pressure_sealevel;temperature;humidity
55610;BME280;41486;52.502;13.486;2023-10-31T00:00:45;99015.22;;;11.54;100.00
55610;BME280;41486;52.502;13.486;2023-10-31T00:03:13;99005.00;;;11.51;100.00
55610;BME280;41486;52.502;13.486;2023-10-31T00:05:41;99003.03;;;11.53;100.00
55610;BME280;41486;52.502;13.486;2023-10-31T00:08:09;99017.34;;;11.59;100.00
55610;BME280;41486;52.502;13.486;2023-10-31T00:10:37;99015.72;;;11.66;100.00
55610;BME280;41486;52.502;13.486;2023-10-31T00:13:06;99005.47;;;11.55;100.00
55610;BME280;41486;52.502;13.486;2023-10-31T00:15:34;99004.66;;;11.54;100.00
55610;BME280;41486;52.502;13.486;2023-10-31T00:18:03;99017.66;;;11.56;100.00
55610;BME280;41486;52.502;13.486;2023-10-31T00:20:31;99027.72;;;11.60;100.00
55610;BME280;41486;52.502;13.486;2023-10-31T00:22:59;99022.81;;;11.57;100.00
55610;BME280;41486;52.502;13.486;2023-10-31T00:25:27;99024.41;;;11.50;100.00
55610;BME280;41486;52.502;13.486;2023-10-31T00:27:55;99026.56;;;11.63;100.00
55610;BME280;41486;52.502;13.486;2023-10-31T00:30:24;99010.63;;;11.81;100.00
55610;BME280;41486;52.502;13.486;2023-10-31T00:32:53;99018.34;;;11.66;100.00
55610;BME280;41486;52.502;13.486;2023-10-31T00:35:21;98994.63;;;11.74;100.00
55610;BME280;41486;52.502;13.486;2023-10-31T00:37:49;98994.31;;;11.52;100.00
55610;BME280;41486;52.502;13.486;2023-10-31T00:40:17;99003.84;;;11.45;100.00
55610;BME280;41486;52.502;13.486;2023-10-31T00:42:45;98985.25;;;11.63;100.00
55610;BME280;41486;52.502;13.486;2023-10-31T00:45:14;98994.63;;;11.41;100.00
55610;BME280;41486;52.502;13.486;2023-10-31T00:47:43;98993.47;;;11.44;100.00
55610;BME280;41486;52.502;13.486;2023-10-31T00:50:11;98997.56;;;11.38;100.00
55610;BME280;41486;52.502;13.486;2023-10-31T00:52:40;98982.94;;;11.52;100.00
55610;BME280;41486;52.502;13.486;2023-10-31T00:55:08;99002.69;;;11.31;100.00
55610;BME280;41486;52.502;13.486;2023-10-31T00:57:36;99002.03;;;11.38;100.00
55610;BME280;41486;52.502;13.486;2023-10-31T01:00:06;99006.97;;;11.32;100.00
55610;BME280;41486;52.502;13.486;2023-10-31T01:02:35;99005.31;;;11.40;100.00
55610;BME280;41486;52.502;13.486;2023-10-31T01:05:05;99003.69;;;11.47;100.00
55610;BME280;41486;52.502;13.486;2023-10-31T01:07:34;98996.78;;;11.54;100.00
55610;BME280;41486;52.502;13.486;2023-10-31T01:10:02;98979.28;;;11.28;100.00
55610;BME280;41486;52.502;13.486;2023-10-31T01:12:30;98980.28;;;11.35;100.00
55610;BME280;41486;52.502;13.486;2023-10-31T01:14:59;98968.28;;;11.41;100.00
55610;BME280;41486;52.502;13.486;2023-10-31T01:17:27;98966.78;;;11.30;100.00
55610;BME280;41486;52.502;13.486;2023-10-31T01:19:55;98965.16;;;11.29;100.00
55610;BME280;41486;52.502;13.486;2023-10-31T01:22:24;98961.34;;;11.32;100.00
55610;BME280;41486;52.502;13.486;2023-10-31T01:24:52;98954.28;;;11.24;100.00
55610;BME280;41486;52.502;13.486;2023-10-31T01:27:20;98956.25;;;11.22;100.00
55610;BME280;41486;52.502;13.486;2023-10-31T01:29:48;98955.09;;;11.33;100.00
55610;BME280;41486;52.502;13.486;2023-10-31T01:32:16;98930.09;;;11.37;100.00
55610;BME280;41486;52.502;13.486;2023-10-31T01:34:48;98915.78;;;11.31;100.00
55610;BME280;41486;52.502;13.486;2023-10-31T01:37:17;98933.88;;;11.26;100.00
55610;BME280;41486;52.502;13.486;2023-10-31T01:39:47;98952.97;;;11.28;100.00
55610;BME280;41486;52.502;13.486;2023-10-31T01:42:17;98952.97;;;11.28;100.00
55610;BME280;41486;52.502;13.486;2023-10-31T01:44:45;98950.19;;;11.22;100.00
55610;BME280;41486;52.502;13.486;2023-10-31T01:47:13;98940.78;;;11.35;100.00
55610;BME280;41486;52.502;13.486;2023-10-31T01:49:41;98944.38;;;11.10;100.00
55610;BME280;41486;52.502;13.486;2023-10-31T01:52:10;98938.63;;;11.14;100.00
55610;BME280;41486;52.502;13.486;2023-10-31T01:54:38;98937.31;;;11.02;100.00
55610;BME280;41486;52.502;13.486;2023-10-31T01:57:08;98945.50;;;10.91;100.00
55610;BME280;41486;52.502;13.486;2023-10-31T01:59:36;98942.38;;;10.95;100.00
55610;BME280;41486;52.502;13.486;2023-10-31T02:02:05;98939.78;;;11.20;100.00
55610;BME280;41486;52.502;13.486;2023-10-31T02:04:34;98934.22;;;11.31;100.00
55610;BME280;41486;52.502;13.486;2023-10-31T02:07:02;98928.09;;;11.06;100.00
55610;BME280;41486;52.502;13.486;2023-10-31T02:09:31;98930.56;;;10.99;100.00
55610;BME280;41486;52.502;13.486;2023-10-31T02:12:00;98934.38;;;11.05;100.00
55610;BME280;41486;52.502;13.486;2023-10-31T02:14:29;98930.88;;;11.04;100.00
55610;BME280;41486;52.502;13.486;2023-10-31T02:16:57;98927.28;;;11.14;100.00
55610;BME280;41486;52.502;13.486;2023-10-31T02:19:26;98922.31;;;10.94;100.00
55610;BME280;41486;52.502;13.486;2023-10-31T02:21:58;98892.06;;;11.07;100.00
55610;BME280;41486;52.502;13.486;2023-10-31T02:24:26;98910.81;;;10.95;100.00
55610;BME280;41486;52.502;13.486;2023-10-31T02:26:54;98915.25;;;10.95;100.00
55610;BME280;41486;52.502;13.486;2023-10-31T02:29:24;98908.19;;;11.03;100.00
55610;BME280;41486;52.502;13.486;2023-10-31T02:31:52;98899.78;;;10.92;100.00
55610;BME280;41486;52.502;13.486;2023-10-31T02:34:20;98896.50;;;10.81;100.00
55610;BME280;41486;52.502;13.486;2023-10-31T02:36:48;98890.56;;;10.79;100.00
55610;BME280;41486;52.502;13.486;2023-10-31T02:39:18;98895.66;;;10.81;100.00
55610;BME280;41486;52.502;13.486;2023-10-31T02:41:46;98903.06;;;10.85;100.00
55610;BME280;41486;52.502;13.486;2023-10-31T02:44:15;98913.09;;;10.90;100.00
55610;BME280;41486;52.502;13.486;2023-10-31T02:46:43;98914.41;;;10.94;100.00
55610;BME280;41486;52.502;13.486;2023-10-31T02:49:11;98902.25;;;10.85;100.00
55610;BME280;41486;52.502;13.486;2023-10-31T02:51:39;98902.09;;;10.86;100.00
55610;BME280;41486;52.502;13.486;2023-10-31T02:54:07;98898.13;;;10.82;100.00
55610;BME280;41486;52.502;13.486;2023-10-31T02:56:36;98893.03;;;10.89;100.00
55610;BME280;41486;52.502;13.486;2023-10-31T02:59:04;98885.44;;;10.78;100.00
55610;BME280;41486;52.502;13.486;2023-10-31T03:01:34;98906.66;;;10.76;100.00
55610;BME280;41486;52.502;13.486;2023-10-31T03:04:03;98897.97;;;10.84;100.00
55610;BME280;41486;52.502;13.486;2023-10-31T03:06:31;98895.47;;;10.82;100.00
55610;BME280;41486;52.502;13.486;2023-10-31T03:08:59;98892.38;;;10.87;100.00
55610;BME280;41486;52.502;13.486;2023-10-31T03:11:28;98899.59;;;10.77;100.00
55610;BME280;41486;52.502;13.486;2023-10-31T03:13:57;98882.34;;;10.99;100.00
55610;BME280;41486;52.502;13.486;2023-10-31T03:16:26;98879.88;;;10.89;100.00
55610;BME280;41486;52.502;13.486;2023-10-31T03:18:54;98868.22;;;11.16;100.00
55610;BME280;41486;52.502;13.486;2023-10-31T03:21:22;98870.69;;;10.85;100.00
55610;BME280;41486;52.502;13.486;2023-10-31T03:23:51;98873.31;;;10.93;100.00
55610;BME280;41486;52.502;13.486;2023-10-31T03:26:22;98890.88;;;10.84;100.00
55610;BME280;41486;52.502;13.486;2023-10-31T03:28:50;98887.59;;;10.82;100.00
55610;BME280;41486;52.502;13.486;2023-10-31T03:31:25;98901.59;;;10.91;100.00
55610;BME280;41486;52.502;13.486;2023-10-31T03:33:53;98892.72;;;10.92;100.00
55610;BME280;41486;52.502;13.486;2023-10-31T03:36:21;98898.78;;;10.93;100.00
55610;BME280;41486;52.502;13.486;2023-10-31T03:38:49;98895.69;;;10.97;100.00
55610;BME280;41486;52.502;13.486;2023-10-31T03:41:17;98896.50;;;10.98;100.00
55610;BME280;41486;52.502;13.486;2023-10-31T03:43:45;98894.88;;;10.97;100.00
55610;BME280;41486;52.502;13.486;2023-10-31T03:46:14;98888.09;;;10.94;100.00
55610;BME280;41486;52.502;13.486;2023-10-31T03:48:43;98895.03;;;11.03;100.00
55610;BME280;41486;52.502;13.486;2023-10-31T03:51:11;98889.13;;;11.01;100.00
55610;BME280;41486;52.502;13.486;2023-10-31T03:53:39;98885.97;;;11.06;100.00
55610;BME280;41486;52.502;13.486;2023-10-31T03:56:07;98888.97;;;11.19;100.00
55610;BME280;41486;52.502;13.486;2023-10-31T03:58:35;98885.00;;;11.24;100.00
55610;BME280;41486;52.502;13.486;2023-10-31T04:01:03;98885.66;;;11.26;100.00
55610;BME280;41486;52.502;13.486;2023-10-31T04:03:31;98877.59;;;11.27;100.00
55610;BME280;41486;52.502;13.486;2023-10-31T04:06:01;98875.13;;;11.34;100.00
55610;BME280;41486;52.502;13.486;2023-10-31T04:08:29;98873.97;;;11.28;100.00
55610;BME280;41486;52.502;13.486;2023-10-31T04:10:57;98877.44;;;11.29;100.00
55610;BME280;41486;52.502;13.486;2023-10-31T04:13:25;98867.53;;;11.23;100.00
55610;BME280;41486;52.502;13.486;2023-10-31T04:15:53;98869.38;;;11.22;100.00
55610;BME280;41486;52.502;13.486;2023-10-31T04:18:21;98880.06;;;11.20;100.00
55610;BME280;41486;52.502;13.486;2023-10-31T04:20:49;98886.13;;;11.04;100.00
55610;BME280;41486;52.502;13.486;2023-10-31T04:23:19;98881.38;;;11.16;100.00
55610;BME280;41486;52.502;13.486;2023-10-31T04:25:47;98876.94;;;11.17;100.00
55610;BME280;41486;52.502;13.486;2023-10-31T04:28:15;98878.25;;;11.13;100.00
55610;BME280;41486;52.502;13.486;2023-10-31T04:30:43;98874.94;;;11.35;100.00
55610;BME280;41486;52.502;13.486;2023-10-31T04:33:11;98864.09;;;11.30;100.00
55610;BME280;41486;52.502;13.486;2023-10-31T04:35:39;98858.66;;;11.32;100.00
55610;BME280;41486;52.502;13.486;2023-10-31T04:38:07;98855.53;;;11.20;100.00
55610;BME280;41486;52.502;13.486;2023-10-31T04:40:36;98857.69;;;11.25;100.00
55610;BME280;41486;52.502;13.486;2023-10-31T04:43:04;98866.25;;;11.35;100.00
55610;BME280;41486;52.502;13.486;2023-10-31T04:45:32;98855.22;;;11.23;100.00
55610;BME280;41486;52.502;13.486;2023-10-31T04:48:00;98848.13;;;11.32;100.00
55610;BME280;41486;52.502;13.486;2023-10-31T04:50:29;98843.03;;;11.22;100.00
55610;BME280;41486;52.502;13.486;2023-10-31T04:52:56;98852.09;;;11.28;100.00
55610;BME280;41486;52.502;13.486;2023-10-31T04:55:24;98858.84;;;11.30;100.00
55610;BME280;41486;52.502;13.486;2023-10-31T04:57:54;98857.50;;;11.43;100.00
55610;BME280;41486;52.502;13.486;2023-10-31T05:00:23;98853.72;;;11.37;100.00
55610;BME280;41486;52.502;13.486;2023-10-31T05:02:51;98857.97;;;11.38;100.00
55610;BME280;41486;52.502;13.486;2023-10-31T05:05:19;98848.94;;;11.49;100.00
55610;BME280;41486;52.502;13.486;2023-10-31T05:07:47;98856.00;;;11.48;100.00
55610;BME280;41486;52.502;13.486;2023-10-31T05:10:15;98855.34;;;11.46;100.00
55610;BME280;41486;52.502;13.486;2023-10-31T05:12:44;98848.09;;;11.48;100.00
55610;BME280;41486;52.502;13.486;2023-10-31T05:15:14;98858.63;;;11.48;100.00
55610;BME280;41486;52.502;13.486;2023-10-31T05:17:42;98859.94;;;11.61;100.00
55610;BME280;41486;52.502;13.486;2023-10-31T05:20:10;98859.97;;;11.52;100.00
55610;BME280;41486;52.502;13.486;2023-10-31T05:22:40;98863.91;;;11.57;100.00
55610;BME280;41486;52.502;13.486;2023-10-31T05:25:09;98859.09;;;11.60;100.00
55610;BME280;41486;52.502;13.486;2023-10-31T05:27:37;98848.09;;;11.57;100.00
55610;BME280;41486;52.502;13.486;2023-10-31T05:30:06;98849.22;;;11.62;100.00
55610;BME280;41486;52.502;13.486;2023-10-31T05:32:35;98845.91;;;11.68;100.00
55610;BME280;41486;52.502;13.486;2023-10-31T05:35:04;98854.00;;;11.67;100.00
55610;BME280;41486;52.502;13.486;2023-10-31T05:37:32;98851.72;;;11.56;100.00
55610;BME280;41486;52.502;13.486;2023-10-31T05:40:00;98852.38;;;11.58;100.00
55610;BME280;41486;52.502;13.486;2023-10-31T05:42:28;98859.47;;;11.57;100.00
55610;BME280;41486;52.502;13.486;2023-10-31T05:44:56;98859.13;;;11.44;100.00
55610;BME280;41486;52.502;13.486;2023-10-31T05:47:24;98863.72;;;11.58;100.00
55610;BME280;41486;52.502;13.486;2023-10-31T05:49:54;98866.19;;;11.68;100.00
55610;BME280;41486;52.502;13.486;2023-10-31T05:52:22;98862.88;;;11.66;100.00
55610;BME280;41486;52.502;13.486;2023-10-31T05:54:50;98873.47;;;11.49;100.00
55610;BME280;41486;52.502;13.486;2023-10-31T05:57:18;98883.00;;;11.59;100.00
55610;BME280;41486;52.502;13.486;2023-10-31T05:59:46;98890.59;;;11.54;100.00
55610;BME280;41486;52.502;13.486;2023-10-31T06:02:14;98894.03;;;11.54;100.00
55610;BME280;41486;52.502;13.486;2023-10-31T06:04:42;98892.38;;;11.70;100.00
55610;BME280;41486;52.502;13.486;2023-10-31T06:07:12;98904.56;;;11.54;100.00
55610;BME280;41486;52.502;13.486;2023-10-31T06:09:39;98906.88;;;11.65;100.00
55610;BME280;41486;52.502;13.486;2023-10-31T06:12:07;98909.16;;;11.68;100.00
55610;BME280;41486;52.502;13.486;2023-10-31T06:14:35;98903.59;;;11.55;100.00
55610;BME280;41486;52.502;13.486;2023-10-31T06:17:04;98912.94;;;11.66;100.00
55610;BME280;41486;52.502;13.486;2023-10-31T06:19:34;98913.25;;;11.71;100.00
55610;BME280;41486;52.502;13.486;2023-10-31T06:22:02;98921.66;;;11.66;100.00
55610;BME280;41486;52.502;13.486;2023-10-31T06:24:31;98920.53;;;11.77;100.00
55610;BME280;41486;52.502;13.486;2023-10-31T06:26:59;98923.47;;;11.74;100.00
55610;BME280;41486;52.502;13.486;2023-10-31T06:29:27;98917.22;;;11.75;100.00
55610;BME280;41486;52.502;13.486;2023-10-31T06:32:15;98933.34;;;11.80;100.00
55610;BME280;41486;52.502;13.486;2023-10-31T06:34:43;98927.25;;;11.80;100.00
55610;BME280;41486;52.502;13.486;2023-10-31T06:37:11;98932.69;;;11.78;100.00
55610;BME280;41486;52.502;13.486;2023-10-31T06:39:43;98942.72;;;11.83;100.00
55610;BME280;41486;52.502;13.486;2023-10-31T06:42:11;98945.34;;;11.91;100.00
55610;BME280;41486;52.502;13.486;2023-10-31T06:44:39;98946.03;;;11.85;100.00
55610;BME280;41486;52.502;13.486;2023-10-31T06:47:07;98944.56;;;11.99;100.00
55610;BME280;41486;52.502;13.486;2023-10-31T06:49:35;98947.19;;;11.99;100.00
55610;BME280;41486;52.502;13.486;2023-10-31T06:52:05;98938.63;;;11.97;100.00
55610;BME280;41486;52.502;13.486;2023-10-31T06:54:33;98942.56;;;12.01;100.00
55610;BME280;41486;52.502;13.486;2023-10-31T06:57:03;98945.69;;;12.05;100.00
55610;BME280;41486;52.502;13.486;2023-10-31T06:59:31;98954.59;;;12.04;100.00
55610;BME280;41486;52.502;13.486;2023-10-31T07:01:59;98950.78;;;12.06;100.00
55610;BME280;41486;52.502;13.486;2023-10-31T07:04:28;98955.41;;;12.04;100.00
55610;BME280;41486;52.502;13.486;2023-10-31T07:06:56;98958.38;;;12.09;100.00
55610;BME280;41486;52.502;13.486;2023-10-31T07:09:24;98956.72;;;12.08;100.00
55610;BME280;41486;52.502;13.486;2023-10-31T07:11:53;98962.16;;;12.07;100.00
55610;BME280;41486;52.502;13.486;2023-10-31T07:14:22;98960.16;;;12.17;100.00
55610;BME280;41486;52.502;13.486;2023-10-31T07:16:50;98960.16;;;12.17;100.00
55610;BME280;41486;52.502;13.486;2023-10-31T07:19:18;98960.81;;;12.19;100.00
55610;BME280;41486;52.502;13.486;2023-10-31T07:21:46;98969.22;;;12.23;100.00
55610;BME280;41486;52.502;13.486;2023-10-31T07:24:14;98984.38;;;12.12;100.00
55610;BME280;41486;52.502;13.486;2023-10-31T07:26:42;98985.22;;;12.13;100.00
55610;BME280;41486;52.502;13.486;2023-10-31T07:29:10;98990.00;;;12.18;100.00
55610;BME280;41486;52.502;13.486;2023-10-31T07:31:40;98993.59;;;12.25;100.00
55610;BME280;41486;52.502;13.486;2023-10-31T07:34:08;99000.69;;;12.16;100.00
55610;BME280;41486;52.502;13.486;2023-10-31T07:36:37;99022.28;;;12.20;100.00
55610;BME280;41486;52.502;13.486;2023-10-31T07:39:06;99018.34;;;12.15;100.00
55610;BME280;41486;52.502;13.486;2023-10-31T07:41:34;99015.06;;;12.05;100.00
55610;BME280;41486;52.502;13.486;2023-10-31T07:44:02;99001.38;;;12.02;100.00
55610;BME280;41486;52.502;13.486;2023-10-31T07:46:30;98983.41;;;12.05;100.00
55610;BME280;41486;52.502;13.486;2023-10-31T07:49:00;98977.81;;;12.08;100.00
55610;BME280;41486;52.502;13.486;2023-10-31T07:54:39;98971.38;;;12.11;100.00
55610;BME280;41486;52.502;13.486;2023-10-31T07:57:07;98972.88;;;12.05;100.00
55610;BME280;41486;52.502;13.486;2023-10-31T07:59:35;98979.78;;;12.06;100.00
55610;BME280;41486;52.502;13.486;2023-10-31T08:02:04;98967.78;;;12.04;100.00
55610;BME280;41486;52.502;13.486;2023-10-31T08:04:33;98970.75;;;12.01;100.00
55610;BME280;41486;52.502;13.486;2023-10-31T08:07:01;98974.22;;;12.01;100.00
55610;BME280;41486;52.502;13.486;2023-10-31T08:09:29;98979.47;;;11.93;100.00
55610;BME280;41486;52.502;13.486;2023-10-31T08:11:57;98980.97;;;12.04;100.00
55610;BME280;41486;52.502;13.486;2023-10-31T08:14:25;98983.41;;;12.05;100.00
55610;BME280;41486;52.502;13.486;2023-10-31T08:16:53;98998.09;;;11.99;100.00
55610;BME280;41486;52.502;13.486;2023-10-31T08:19:21;98987.53;;;11.99;100.00
55610;BME280;41486;52.502;13.486;2023-10-31T08:21:51;98995.44;;;11.91;100.00
55610;BME280;41486;52.502;13.486;2023-10-31T08:24:21;99009.09;;;11.95;100.00
55610;BME280;41486;52.502;13.486;2023-10-31T08:26:48;99009.28;;;11.93;100.00
55610;BME280;41486;52.502;13.486;2023-10-31T08:29:16;99013.25;;;11.89;100.00
55610;BME280;41486;52.502;13.486;2023-10-31T08:31:44;99018.53;;;11.89;100.00
55610;BME280;41486;52.502;13.486;2023-10-31T08:34:13;99022.94;;;11.89;100.00
55610;BME280;41486;52.502;13.486;2023-10-31T08:36:41;99028.88;;;11.91;100.00
55610;BME280;41486;52.502;13.486;2023-10-31T08:39:10;99039.75;;;11.96;100.00
55610;BME280;41486;52.502;13.486;2023-10-31T08:41:49;99029.41;;;12.03;100.00
55610;BME280;41486;52.502;13.486;2023-10-31T08:44:18;99040.94;;;12.02;100.00
55610;BME280;41486;52.502;13.486;2023-10-31T08:46:46;99050.00;;;12.07;100.00
55610;BME280;41486;52.502;13.486;2023-10-31T08:49:14;99028.91;;;12.07;100.00
55610;BME280;41486;52.502;13.486;2023-10-31T08:51:43;99040.59;;;12.13;100.00
55610;BME280;41486;52.502;13.486;2023-10-31T08:54:13;99038.44;;;12.17;100.00
55610;BME280;41486;52.502;13.486;2023-10-31T08:56:41;99046.69;;;12.13;100.00
55610;BME280;41486;52.502;13.486;2023-10-31T08:59:09;99045.22;;;12.11;100.00
55610;BME280;41486;52.502;13.486;2023-10-31T09:01:37;99045.53;;;12.16;100.00
55610;BME280;41486;52.502;13.486;2023-10-31T09:04:05;99051.28;;;12.11;100.00
55610;BME280;41486;52.502;13.486;2023-10-31T09:06:33;99047.19;;;12.09;100.00
55610;BME280;41486;52.502;13.486;2023-10-31T09:09:02;99056.25;;;12.14;100.00
55610;BME280;41486;52.502;13.486;2023-10-31T09:11:32;99081.47;;;12.17;100.00
55610;BME280;41486;52.502;13.486;2023-10-31T09:14:00;99068.94;;;12.11;100.00
55610;BME280;41486;52.502;13.486;2023-10-31T09:16:28;99088.06;;;12.13;100.00
55610;BME280;41486;52.502;13.486;2023-10-31T09:18:56;99080.47;;;12.18;100.00
55610;BME280;41486;52.502;13.486;2023-10-31T09:21:24;99079.81;;;12.16;100.00
55610;BME280;41486;52.502;13.486;2023-10-31T09:23:52;99071.41;;;12.21;100.00
55610;BME280;41486;52.502;13.486;2023-10-31T09:26:20;99080.66;;;12.08;100.00
55610;BME280;41486;52.502;13.486;2023-10-31T09:28:49;99064.16;;;12.23;100.00
55610;BME280;41486;52.502;13.486;2023-10-31T09:31:18;99084.75;;;12.19;100.00
55610;BME280;41486;52.502;13.486;2023-10-31T09:33:46;99077.16;;;12.16;100.00
55610;BME280;41486;52.502;13.486;2023-10-31T09:36:15;99087.03;;;12.22;100.00
55610;BME280;41486;52.502;13.486;2023-10-31T09:38:42;99085.44;;;12.21;100.00
55610;BME280;41486;52.502;13.486;2023-10-31T09:41:12;99125.47;;;12.17;100.00
55610;BME280;41486;52.502;13.486;2023-10-31T09:43:40;99092.66;;;12.19;100.00
55610;BME280;41486;52.502;13.486;2023-10-31T09:46:10;99087.22;;;12.21;100.00
55610;BME280;41486;52.502;13.486;2023-10-31T09:48:38;99107.81;;;12.25;100.00
55610;BME280;41486;52.502;13.486;2023-10-31T09:51:10;99103.88;;;12.21;100.00
55610;BME280;41486;52.502;13.486;2023-10-31T09:53:39;99106.84;;;12.26;100.00
55610;BME280;41486;52.502;13.486;2023-10-31T09:56:09;99118.88;;;12.29;100.00
55610;BME280;41486;52.502;13.486;2023-10-31T09:58:38;99131.56;;;12.34;100.00
55610;BME280;41486;52.502;13.486;2023-10-31T10:01:09;99115.72;;;12.34;100.00
55610;BME280;41486;52.502;13.486;2023-10-31T10:03:38;99125.28;;;12.43;100.00
55610;BME280;41486;52.502;13.486;2023-10-31T10:06:06;99123.94;;;12.47;100.00
55610;BME280;41486;52.502;13.486;2023-10-31T10:08:37;99122.81;;;12.50;100.00
55610;BME280;41486;52.502;13.486;2023-10-31T10:11:05;99123.63;;;12.50;100.00
55610;BME280;41486;52.502;13.486;2023-10-31T10:13:33;99147.69;;;12.55;100.00
55610;BME280;41486;52.502;13.486;2023-10-31T10:16:02;99121.16;;;12.49;100.00
55610;BME280;41486;52.502;13.486;2023-10-31T10:18:32;99150.34;;;12.47;100.00
55610;BME280;41486;52.502;13.486;2023-10-31T10:21:03;99133.03;;;12.53;100.00
55610;BME280;41486;52.502;13.486;2023-10-31T10:23:32;99134.16;;;12.58;100.00
55610;BME280;41486;52.502;13.486;2023-10-31T10:26:03;99139.75;;;12.72;100.00
55610;BME280;41486;52.502;13.486;2023-10-31T10:28:31;99148.03;;;12.60;100.00
55610;BME280;41486;52.502;13.486;2023-10-31T10:31:00;99141.75;;;12.70;100.00
55610;BME280;41486;52.502;13.486;2023-10-31T10:33:28;99145.38;;;12.69;100.00
55610;BME280;41486;52.502;13.486;2023-10-31T10:35:58;99151.28;;;12.71;100.00
55610;BME280;41486;52.502;13.486;2023-10-31T10:38:28;99152.78;;;12.82;100.00
55610;BME280;41486;52.502;13.486;2023-10-31T10:40:58;99152.25;;;12.86;100.00
55610;BME280;41486;52.502;13.486;2023-10-31T10:43:28;99145.66;;;12.90;100.00
55610;BME280;41486;52.502;13.486;2023-10-31T10:45:59;99144.13;;;13.04;100.00
55610;BME280;41486;52.502;13.486;2023-10-31T10:48:28;99136.19;;;13.13;100.00
55610;BME280;41486;52.502;13.486;2023-10-31T10:51:02;99132.56;;;13.05;100.00
55610;BME280;41486;52.502;13.486;2023-10-31T10:53:35;99125.66;;;13.04;100.00
55610;BME280;41486;52.502;13.486;2023-10-31T10:56:13;99139.13;;;13.18;100.00
55610;BME280;41486;52.502;13.486;2023-10-31T10:58:50;99123.09;;;13.19;100.00
55610;BME280;41486;52.502;13.486;2023-10-31T11:01:19;99122.78;;;13.14;100.00
55610;BME280;41486;52.502;13.486;2023-10-31T11:03:48;99128.59;;;13.09;100.00
55610;BME280;41486;52.502;13.486;2023-10-31T11:06:18;99129.81;;;13.30;100.00
55610;BME280;41486;52.502;13.486;2023-10-31T11:08:47;99124.63;;;13.53;100.00
55610;BME280;41486;52.502;13.486;2023-10-31T11:11:15;99111.00;;;13.88;100.00
55610;BME280;41486;52.502;13.486;2023-10-31T11:13:44;99119.84;;;13.49;100.00
55610;BME280;41486;52.502;13.486;2023-10-31T11:16:16;99118.44;;;13.30;100.00
55610;BME280;41486;52.502;13.486;2023-10-31T11:18:46;99118.00;;;13.18;100.00
55610;BME280;41486;52.502;13.486;2023-10-31T11:21:14;99120.41;;;13.28;100.00
55610;BME280;41486;52.502;13.486;2023-10-31T11:23:44;99135.97;;;13.22;100.00
55610;BME280;41486;52.502;13.486;2023-10-31T11:26:12;99136.47;;;13.18;100.00
55610;BME280;41486;52.502;13.486;2023-10-31T11:28:40;99148.22;;;13.15;100.00
55610;BME280;41486;52.502;13.486;2023-10-31T11:31:08;99149.53;;;13.11;100.00
55610;BME280;41486;52.502;13.486;2023-10-31T11:33:38;99149.53;;;13.11;100.00
55610;BME280;41486;52.502;13.486;2023-10-31T11:36:07;99149.06;;;13.07;100.00
55610;BME280;41486;52.502;13.486;2023-10-31T11:38:38;99148.06;;;13.08;100.00
55610;BME280;41486;52.502;13.486;2023-10-31T11:41:07;99157.16;;;13.06;100.00
55610;BME280;41486;52.502;13.486;2023-10-31T11:43:50;99159.13;;;13.04;100.00
55610;BME280;41486;52.502;13.486;2023-10-31T11:46:19;99165.91;;;12.98;100.00
55610;BME280;41486;52.502;13.486;2023-10-31T11:48:49;99167.22;;;13.02;100.00
55610;BME280;41486;52.502;13.486;2023-10-31T11:51:18;99172.66;;;13.09;100.00
55610;BME280;41486;52.502;13.486;2023-10-31T11:53:48;99176.66;;;12.97;100.00
55610;BME280;41486;52.502;13.486;2023-10-31T11:56:21;99174.00;;;13.05;100.00
55610;BME280;41486;52.502;13.486;2023-10-31T11:59:02;99176.56;;;13.21;100.00
55610;BME280;41486;52.502;13.486;2023-10-31T12:01:31;99183.28;;;13.49;100.00
55610;BME280;41486;52.502;13.486;2023-10-31T12:03:59;99211.75;;;13.70;100.00
55610;BME280;41486;52.502;13.486;2023-10-31T12:06:30;99184.94;;;13.41;100.00
55610;BME280;41486;52.502;13.486;2023-10-31T12:08:59;99209.22;;;13.37;100.00
55610;BME280;41486;52.502;13.486;2023-10-31T12:11:30;99196.19;;;13.35;100.00
55610;BME280;41486;52.502;13.486;2023-10-31T12:14:00;99200.53;;;13.99;100.00
55610;BME280;41486;52.502;13.486;2023-10-31T12:16:29;99197.66;;;13.46;100.00
55610;BME280;41486;52.502;13.486;2023-10-31T12:18:59;99197.34;;;13.33;100.00
55610;BME280;41486;52.502;13.486;2023-10-31T12:21:37;99196.91;;;13.21;100.00
55610;BME280;41486;52.502;13.486;2023-10-31T12:24:06;99195.41;;;13.10;100.00
55610;BME280;41486;52.502;13.486;2023-10-31T12:26:37;99202.72;;;13.08;100.00
55610;BME280;41486;52.502;13.486;2023-10-31T12:29:09;99207.63;;;13.11;100.00
55610;BME280;41486;52.502;13.486;2023-10-31T12:31:42;99216.06;;;12.98;100.00
55610;BME280;41486;52.502;13.486;2023-10-31T12:34:13;99218.09;;;12.96;100.00
55610;BME280;41486;52.502;13.486;2023-10-31T12:36:41;99198.25;;;13.00;100.00
55610;BME280;41486;52.502;13.486;2023-10-31T12:39:11;99204.88;;;13.04;100.00
55610;BME280;41486;52.502;13.486;2023-10-31T12:41:41;99221.69;;;13.03;100.00
55610;BME280;41486;52.502;13.486;2023-10-31T12:44:09;99237.03;;;13.08;100.00
55610;BME280;41486;52.502;13.486;2023-10-31T12:46:39;99238.69;;;13.09;100.00
55610;BME280;41486;52.502;13.486;2023-10-31T12:49:11;99234.91;;;13.03;100.00
55610;BME280;41486;52.502;13.486;2023-10-31T12:51:55;99246.13;;;12.97;100.00